KB2FWP Weather Reports


Display with metric or nautical units.
time (UTC)temp
F
wind
direction
speed
MPH
gust
MPH
rain 1hr
in
rain 24hr
in
rain mn
in
humidity
%
barometer
mb
20190918024630 65 103 6.0 11.0 0.00 0.00 0.00 73 1022.1
20190918023107 65 111 5.0 10.0 0.00 0.00 0.00 73 1022.2
20190918021553 65 71 8.0 14.0 0.00 0.00 0.00 72 1022.0
20190918020122 65 93 6.0 11.0 0.00 0.00 0.00 72 1022.0
20190918014557 65 106 6.0 13.0 0.00 0.00 0.00 71 1021.9
20190918013102 66 111 6.0 10.0 0.00 0.00 0.00 70 1021.9
20190918011546 66 90 7.0 12.0 0.00 0.00 0.00 70 1022.0
20190918010040 66 121 3.0 10.0 0.00 0.00 0.00 70 1021.9
20190918004606 66 96 3.0 6.0 0.00 0.00 0.00 59 1021.7
20190918003041 66 80 0.0 2.0 0.00 0.00 0.00 56 1021.5
20190918001531 67 80 0.0 2.0 0.00 0.00 0.00 54 1021.3
20190918000119 67 75 0.0 3.0 0.00 0.00 0.00 52 1021.1
20190917234532 68 51 0.0 0.0 0.00 0.00 0.00 51 1020.8
20190917233113 69 78 0.0 6.0 0.00 0.00 0.00 49 1020.7
20190917231552 69 86 3.0 6.0 0.00 0.00 0.00 48 1020.5
20190917230053 70 49 0.0 3.0 0.00 0.00 0.00 49 1020.6
20190917224537 72 342 0.0 4.0 0.00 0.00 0.00 46 1020.3
20190917223037 73 344 1.0 6.0 0.00 0.00 0.00 44 1020.3
20190917221623 74 64 2.0 6.0 0.00 0.00 0.00 41 1020.1
20190917220054 75 344 4.0 10.0 0.00 0.00 0.00 38 1020.1
20190917214551 76 338 2.0 9.0 0.00 0.00 0.00 37 1019.9
20190917213035 77 316 2.0 8.0 0.00 0.00 0.00 37 1019.8
20190917211543 77 36 4.0 10.0 0.00 0.00 0.00 35 1019.7
20190917210034 77 95 2.0 8.0 0.00 0.00 0.00 37 1019.7
20190917204603 78 333 3.0 9.0 0.00 0.00 0.00 35 1019.6
20190917203023 80 355 4.0 10.0 0.00 0.00 0.00 35 1019.7
20190917201525 79 342 2.0 9.0 0.00 0.00 0.00 36 1019.8
20190917200023 77 34 2.0 7.0 0.00 0.00 0.00 37 1019.8
20190917194530 77 324 5.0 13.0 0.00 0.00 0.00 37 1019.9
20190917193024 78 355 1.0 10.0 0.00 0.00 0.00 36 1020.1
20190917191554 78 30 3.0 12.0 0.00 0.00 0.00 37 1020.1
20190917190023 79 346 3.0 12.0 0.00 0.00 0.00 35 1020.1
20190917184551 79 333 1.0 10.0 0.00 0.00 0.00 34 1020.4
20190917183027 77 335 5.0 14.0 0.00 0.00 0.00 36 1020.5
20190917181519 78 319 2.0 13.0 0.00 0.00 0.00 36 1020.6
20190917180045 77 333 7.0 14.0 0.00 0.00 0.00 36 1020.6
20190917174536 79 331 3.0 9.0 0.00 0.00 0.00 33 1020.8
20190917173018 78 17 4.0 13.0 0.00 0.00 0.00 33 1021.0
20190917171527 77 24 3.0 11.0 0.00 0.00 0.00 32 1021.1
20190917170050 79 338 1.0 13.0 0.00 0.00 0.00 34 1021.2
20190917164512 77 64 2.0 9.0 0.00 0.00 0.00 36 1021.3
20190917163011 76 65 5.0 12.0 0.00 0.00 0.00 36 1021.3
20190917161523 77 349 2.0 9.0 0.00 0.00 0.00 37 1021.3
20190917160004 77 46 2.0 8.0 0.00 0.00 0.00 40 1021.5
20190917154502 74 320 3.0 9.0 0.00 0.00 0.00 44 1021.5
20190917153250 75 15 2.0 10.0 0.00 0.00 0.00 44 1021.5
20190917151638 74 281 1.0 10.0 0.00 0.00 0.00 46 1021.7
20190917150156 74 19 2.0 9.0 0.00 0.00 0.00 44 1021.7
20190917144704 73 5 3.0 9.0 0.00 0.00 0.00 48 1021.8
20190917143215 72 350 2.0 9.0 0.00 0.00 0.00 52 1021.9
20190917141635 72 33 2.0 8.0 0.00 0.00 0.00 50 1021.9
20190917140219 71 34 1.0 8.0 0.00 0.00 0.00 54 1021.7
20190917134631 70 11 2.0 8.0 0.00 0.00 0.00 54 1021.8
20190917133117 70 349 1.0 8.0 0.00 0.00 0.00 59 1021.7
20190917131626 68 20 1.0 9.0 0.00 0.00 0.00 60 1021.6
20190917130152 68 346 0.0 9.0 0.00 0.00 0.00 63 1021.5
20190917124542 66 27 3.0 9.0 0.00 0.00 0.00 67 1021.4
20190917123121 64 334 2.0 5.0 0.00 0.00 0.00 72 1021.4
20190917121603 64 341 1.0 4.0 0.00 0.00 0.00 73 1021.5
20190917120110 62 340 1.0 3.0 0.00 0.00 0.00 76 1021.3
20190917114630 60 5 1.0 5.0 0.00 0.00 0.00 80 1021.3
20190917113222 59 342 0.0 2.0 0.00 0.00 0.00 81 1021.3
20190917111650 58 342 0.0 4.0 0.00 0.00 0.00 82 1021.1
20190917110117 57 13 0.0 0.0 0.00 0.00 0.00 82 1021.0
20190917104540 57 13 0.0 0.0 0.00 0.00 0.00 83 1020.7
20190917103039 57 13 0.0 0.0 0.00 0.00 0.00 83 1020.4
20190917101554 57 355 0.0 0.0 0.00 0.00 0.00 83 1020.2
20190917100040 57 355 0.0 0.0 0.00 0.00 0.00 83 1020.1
20190917094615 57 355 0.0 0.0 0.00 0.00 0.00 83 1020.1
20190917093042 58 355 0.0 0.0 0.00 0.00 0.00 83 1019.9
20190917091526 58 355 0.0 0.0 0.00 0.00 0.00 84 1019.7
20190917090039 58 355 0.0 0.0 0.00 0.00 0.00 83 1019.6
20190917084532 59 355 0.0 0.0 0.00 0.00 0.00 82 1019.6
20190917083024 59 355 0.0 0.0 0.00 0.00 0.00 81 1019.8
20190917081536 59 355 0.0 0.0 0.00 0.00 0.00 81 1019.6
20190917080015 60 355 0.0 0.0 0.00 0.00 0.00 81 1019.7
20190917074510 60 355 0.0 0.0 0.00 0.00 0.00 80 1019.6
20190917073020 60 355 0.0 2.0 0.00 0.00 0.00 80 1019.5
20190917071511 60 355 1.0 3.0 0.00 0.00 0.00 80 1019.4
20190917070014 60 355 0.0 0.0 0.00 0.00 0.00 79 1019.4
20190917064505 61 360 0.0 1.0 0.00 0.00 0.00 79 1019.6
20190917063002 61 360 0.0 0.0 0.00 0.00 0.00 78 1019.6
20190917061711 61 360 0.0 1.0 0.00 0.00 0.00 78 1019.4
20190917060214 61 360 0.0 0.0 0.00 0.00 0.00 77 1019.4
20190917054635 62 360 0.0 0.0 0.00 0.00 0.00 76 1019.3
20190917053127 62 360 0.0 1.0 0.00 0.00 0.00 74 1019.2
20190917051629 63 360 0.0 2.0 0.00 0.00 0.00 73 1019.1
20190917050131 63 78 0.0 0.0 0.00 0.00 0.00 73 1019.1
20190917044627 64 60 0.0 0.0 0.00 0.00 0.00 74 1019.0
20190917043147 64 61 0.0 0.0 0.00 0.00 0.00 75 1018.9
20190917041634 64 80 0.0 0.0 0.00 0.00 0.00 79 1019.0
20190917040206 64 176 0.0 0.0 0.00 0.00 0.00 83 1018.9
20190917034644 64 176 0.0 0.0 0.00 0.00 0.00 86 1018.9
20190917033215 65 175 0.0 0.0 0.00 0.00 0.00 88 1018.8
20190917031553 65 173 0.0 0.0 0.00 0.00 0.00 89 1018.8
20190917030117 65 173 0.0 0.0 0.00 0.00 0.00 89 1018.7